createdAt,value
2024-05-09T00:00:30.563Z,100816.00
2024-05-09T00:01:07.095Z,100824.91
2024-05-09T00:01:38.010Z,100824.06
2024-05-09T00:02:08.986Z,100826.59
2024-05-09T00:02:39.995Z,100821.44
2024-05-09T00:03:12.035Z,100823.09
2024-05-09T00:03:43.449Z,100828.41
2024-05-09T00:04:14.608Z,100817.94
2024-05-09T00:04:45.703Z,100823.53
2024-05-09T00:05:16.824Z,100824.38
2024-05-09T00:05:47.980Z,100826.19
2024-05-09T00:06:18.964Z,100820.91
2024-05-09T00:06:49.990Z,100821.31
2024-05-09T00:07:20.880Z,100824.53
2024-05-09T00:07:51.814Z,100826.31
2024-05-09T00:08:22.806Z,100821.59
2024-05-09T00:08:53.721Z,100822.28
2024-05-09T00:09:24.683Z,100819.50
2024-05-09T00:09:55.611Z,100822.97
2024-05-09T00:10:35.008Z,100819.19
2024-05-09T00:11:08.663Z,100821.03
2024-05-09T00:11:39.788Z,100820.88
2024-05-09T00:12:10.934Z,100821.72
2024-05-09T00:12:41.962Z,100821.16
2024-05-09T00:13:12.918Z,100823.09
2024-05-09T00:13:43.941Z,100821.59
2024-05-09T00:14:16.382Z,100820.47
2024-05-09T00:14:47.363Z,100817.69
2024-05-09T00:15:18.330Z,100818.66
2024-05-09T00:15:49.256Z,100820.47
2024-05-09T00:16:20.381Z,100817.81
2024-05-09T00:16:51.384Z,100817.00
2024-05-09T00:17:22.432Z,100814.47
2024-05-09T00:17:53.678Z,100821.28
2024-05-09T00:18:24.916Z,100820.47
2024-05-09T00:18:56.061Z,100817.69
2024-05-09T00:19:27.286Z,100815.16
2024-05-09T00:19:58.254Z,100809.47
2024-05-09T00:20:37.203Z,100815.31
2024-05-09T00:21:12.911Z,100825.91
2024-05-09T00:21:43.963Z,100815.16
2024-05-09T00:22:14.865Z,100825.75
2024-05-09T00:22:48.335Z,100823.38
2024-05-09T00:23:19.310Z,100821.03
2024-05-09T00:23:50.292Z,100821.31
2024-05-09T00:24:21.198Z,100821.44
2024-05-09T00:24:52.106Z,100818.50
2024-05-09T00:25:23.014Z,100821.16
2024-05-09T00:25:53.954Z,100819.34
2024-05-09T00:26:25.144Z,100818.50
2024-05-09T00:26:56.965Z,100819.34
2024-05-09T00:27:27.861Z,100825.47
2024-05-09T00:27:58.768Z,100825.47
2024-05-09T00:28:29.695Z,100822.84
2024-05-09T00:29:00.744Z,100819.22
2024-05-09T00:29:33.106Z,100825.34
2024-05-09T00:30:07.002Z,100822.00
2024-05-09T00:30:38.105Z,100823.13
2024-05-09T00:31:09.159Z,100824.94
2024-05-09T00:31:40.106Z,100823.25
2024-05-09T00:32:11.334Z,100823.25
2024-05-09T00:32:42.555Z,100825.78
2024-05-09T00:33:13.872Z,100832.88
2024-05-09T00:33:45.158Z,100830.22
2024-05-09T00:34:16.252Z,100823.13
2024-05-09T00:34:47.190Z,100829.38
2024-05-09T00:35:18.179Z,100832.16
2024-05-09T00:35:49.083Z,100831.47
2024-05-09T00:36:20.021Z,100826.19
2024-05-09T00:36:50.978Z,100830.50
2024-05-09T00:37:21.917Z,100821.56
2024-05-09T00:37:52.933Z,100825.91
2024-05-09T00:38:23.888Z,100833.84
2024-05-09T00:38:54.877Z,100830.34
2024-05-09T00:39:25.968Z,100825.22
2024-05-09T00:39:56.985Z,100822.56
2024-05-09T00:40:38.719Z,100822.56
2024-05-09T00:41:12.197Z,100817.13
2024-05-09T00:41:43.125Z,100822.41
2024-05-09T00:42:14.131Z,100827.69
2024-05-09T00:42:46.130Z,100825.22
2024-05-09T00:43:17.206Z,100830.75
2024-05-09T00:43:48.155Z,100825.63
2024-05-09T00:44:19.181Z,100817.53
2024-05-09T00:44:51.521Z,100822.97
2024-05-09T00:45:22.461Z,100822.97
2024-05-09T00:45:53.984Z,100819.50
2024-05-09T00:46:25.161Z,100821.59
2024-05-09T00:46:56.332Z,100823.53
2024-05-09T00:47:27.658Z,100829.66
2024-05-09T00:48:00.549Z,100818.50
2024-05-09T00:48:33.292Z,100823.97
2024-05-09T00:49:04.977Z,100827.56
2024-05-09T00:49:36.060Z,100822.97
2024-05-09T00:50:15.986Z,100826.16
2024-05-09T00:50:54.420Z,100827.00
2024-05-09T00:51:28.305Z,100824.22
2024-05-09T00:52:01.422Z,100825.06
2024-05-09T00:52:32.586Z,100826.88
2024-05-09T00:53:04.750Z,100827.72
2024-05-09T00:53:35.879Z,100823.81
2024-05-09T00:54:07.254Z,100825.31
2024-05-09T00:54:38.287Z,100821.88
2024-05-09T00:55:09.388Z,100827.28
2024-05-09T00:55:41.166Z,100826.44
2024-05-09T00:56:12.457Z,100827.28
2024-05-09T00:56:43.751Z,100822.13
2024-05-09T00:57:15.932Z,100819.47
2024-05-09T00:57:47.008Z,100824.66
2024-05-09T00:58:21.572Z,100818.38
2024-05-09T00:58:54.069Z,100815.03
2024-05-09T00:59:30.863Z,100816.16
2024-05-09T01:00:06.064Z,100817.81
2024-05-09T01:00:41.105Z,100821.16
2024-05-09T01:01:13.061Z,100817.66
2024-05-09T01:01:45.180Z,100818.38
2024-05-09T01:02:16.528Z,100820.19
2024-05-09T01:02:47.571Z,100816.84
2024-05-09T01:03:19.349Z,100816.03
2024-05-09T01:03:51.951Z,100819.63
2024-05-09T01:04:23.030Z,100816.16
2024-05-09T01:04:54.309Z,100818.78
2024-05-09T01:05:25.599Z,100815.44
2024-05-09T01:05:56.775Z,100818.06
2024-05-09T01:06:27.878Z,100816.44
2024-05-09T01:06:58.891Z,100814.63
2024-05-09T01:07:29.972Z,100819.75
2024-05-09T01:08:01.653Z,100817.00
2024-05-09T01:08:32.865Z,100815.19
2024-05-09T01:09:03.858Z,100811.53
2024-05-09T01:09:34.797Z,100817.66
2024-05-09T01:10:11.702Z,100811.69
2024-05-09T01:10:48.844Z,100809.06
2024-05-09T01:11:20.056Z,100814.34
2024-05-09T01:11:51.204Z,100808.09
2024-05-09T01:12:22.255Z,100810.72
2024-05-09T01:12:53.236Z,100807.38
2024-05-09T01:13:24.156Z,100813.22
2024-05-09T01:13:55.083Z,100801.13
2024-05-09T01:14:26.136Z,100809.72
2024-05-09T01:14:57.091Z,100812.66
2024-05-09T01:15:29.360Z,100810.97
2024-05-09T01:16:00.930Z,100816.28
2024-05-09T01:16:32.559Z,100811.97
2024-05-09T01:17:04.225Z,100812.78
2024-05-09T01:17:35.413Z,100812.78
2024-05-09T01:18:08.957Z,100813.63
2024-05-09T01:18:40.422Z,100813.63
2024-05-09T01:19:18.868Z,100811.81
2024-05-09T01:19:49.950Z,100814.47
2024-05-09T01:20:31.746Z,100814.47
2024-05-09T01:21:10.973Z,100812.78
2024-05-09T01:21:42.738Z,100811.16
2024-05-09T01:22:13.679Z,100821.31
2024-05-09T01:22:44.773Z,100814.19
2024-05-09T01:23:17.153Z,100815.88
2024-05-09T01:23:48.086Z,100817.38
2024-05-09T01:24:19.159Z,100812.09
2024-05-09T01:24:50.036Z,100818.38
2024-05-09T01:25:21.100Z,100823.81
2024-05-09T01:25:52.054Z,100816.84
2024-05-09T01:26:23.038Z,100818.38
2024-05-09T01:26:53.940Z,100817.25
2024-05-09T01:27:24.804Z,100821.59
2024-05-09T01:27:55.679Z,100824.78
2024-05-09T01:28:26.528Z,100818.53
2024-05-09T01:28:57.480Z,100816.84
2024-05-09T01:29:28.455Z,100819.91
2024-05-09T01:29:59.352Z,100824.09
2024-05-09T01:30:34.922Z,100823.81
2024-05-09T01:31:07.949Z,100821.03
2024-05-09T01:31:38.854Z,100828.13
2024-05-09T01:32:09.855Z,100823.25
2024-05-09T01:32:41.005Z,100832.88
2024-05-09T01:33:12.855Z,100826.06
2024-05-09T01:33:44.537Z,100822.28
2024-05-09T01:34:15.528Z,100828.25
2024-05-09T01:34:46.606Z,100819.34
2024-05-09T01:35:17.632Z,100826.19
2024-05-09T01:35:48.568Z,100829.53
2024-05-09T01:36:19.449Z,100825.06
2024-05-09T01:36:50.357Z,100826.03
2024-05-09T01:37:21.256Z,100825.91
2024-05-09T01:37:52.257Z,100824.09
2024-05-09T01:38:24.477Z,100818.81
2024-05-09T01:38:55.444Z,100821.72
2024-05-09T01:39:26.481Z,100834.81
2024-05-09T01:39:57.596Z,100823.38
2024-05-09T01:40:36.516Z,100819.22
2024-05-09T01:41:10.169Z,100820.19
2024-05-09T01:41:41.113Z,100822.16
2024-05-09T01:42:12.060Z,100821.44
2024-05-09T01:42:43.222Z,100816.03
2024-05-09T01:43:14.487Z,100829.09
2024-05-09T01:43:45.460Z,100825.47
2024-05-09T01:44:16.464Z,100824.66
2024-05-09T01:44:47.444Z,100822.84
2024-05-09T01:45:18.343Z,100821.16
2024-05-09T01:45:49.240Z,100816.69
2024-05-09T01:46:20.180Z,100825.47
2024-05-09T01:46:51.099Z,100820.19
2024-05-09T01:47:22.310Z,100831.63
2024-05-09T01:47:53.494Z,100824.53
2024-05-09T01:48:24.712Z,100824.09
2024-05-09T01:48:55.838Z,100816.88
2024-05-09T01:49:26.888Z,100824.09
2024-05-09T01:49:57.887Z,100819.91
2024-05-09T01:50:36.977Z,100824.94
2024-05-09T01:51:12.003Z,100822.69
2024-05-09T01:51:43.015Z,100828.94
2024-05-09T01:52:13.896Z,100821.84
2024-05-09T01:52:44.829Z,100825.63
2024-05-09T01:53:15.929Z,100824.66
2024-05-09T01:53:48.405Z,100822.97
2024-05-09T01:54:19.331Z,100822.97
2024-05-09T01:54:50.252Z,100821.44
2024-05-09T01:55:21.140Z,100825.91
2024-05-09T01:55:52.051Z,100820.75
2024-05-09T01:56:23.101Z,100814.75
2024-05-09T01:56:54.032Z,100815.59
2024-05-09T01:57:24.948Z,100821.72
2024-05-09T01:57:55.823Z,100822.97
2024-05-09T01:58:27.473Z,100822.41
2024-05-09T01:58:58.418Z,100820.72
2024-05-09T01:59:29.710Z,100824.50
2024-05-09T02:00:00.677Z,100821.16
2024-05-09T02:00:38.419Z,100815.88
2024-05-09T02:01:12.462Z,100820.31
2024-05-09T02:01:56.266Z,100821.28
2024-05-09T02:02:28.726Z,100813.34
2024-05-09T02:02:59.896Z,100817.25
2024-05-09T02:03:31.087Z,100818.34
2024-05-09T02:04:02.545Z,100814.72
2024-05-09T02:04:33.729Z,100811.66
2024-05-09T02:05:05.608Z,100817.91
2024-05-09T02:05:36.974Z,100817.06
2024-05-09T02:06:08.240Z,100820.00
2024-05-09T02:06:39.649Z,100817.88
2024-05-09T02:07:10.542Z,100814.94
2024-05-09T02:07:41.456Z,100816.63
2024-05-09T02:08:13.778Z,100809.53
2024-05-09T02:08:45.162Z,100818.00
2024-05-09T02:09:17.495Z,100822.44
2024-05-09T02:09:50.901Z,100814.50
2024-05-09T02:10:26.516Z,100814.06
2024-05-09T02:11:03.501Z,100814.06
2024-05-09T02:11:41.839Z,100814.91
2024-05-09T02:12:13.076Z,100816.16
2024-05-09T02:12:44.059Z,100821.72
2024-05-09T02:13:15.708Z,100814.75
2024-05-09T02:13:46.896Z,100814.19
2024-05-09T02:14:18.028Z,100822.13
2024-05-09T02:14:50.452Z,100825.72
2024-05-09T02:15:21.343Z,100817.78
2024-05-09T02:15:52.475Z,100823.78
2024-05-09T02:16:23.408Z,100826.31
2024-05-09T02:16:54.476Z,100826.31
2024-05-09T02:17:25.600Z,100822.84
2024-05-09T02:17:56.926Z,100821.84
2024-05-09T02:18:28.160Z,100820.88
2024-05-09T02:18:59.209Z,100823.41
2024-05-09T02:19:30.235Z,100822.69
2024-05-09T02:20:01.258Z,100824.63
2024-05-09T02:20:36.269Z,100826.72
2024-05-09T02:21:08.263Z,100817.78
2024-05-09T02:21:39.243Z,100821.94
2024-05-09T02:22:10.373Z,100816.53
2024-05-09T02:22:41.298Z,100821.81
2024-05-09T02:23:12.525Z,100821.81
2024-05-09T02:23:44.030Z,100817.66
2024-05-09T02:24:15.014Z,100824.88
2024-05-09T02:24:47.299Z,100811.09
2024-05-09T02:25:20.881Z,100824.56
2024-05-09T02:25:51.786Z,100822.78
2024-05-09T02:26:22.774Z,100822.91
2024-05-09T02:26:53.716Z,100827.59
2024-05-09T02:27:24.664Z,100824.81
2024-05-09T02:27:55.929Z,100816.78
2024-05-09T02:28:26.829Z,100830.81
2024-05-09T02:28:58.203Z,100821.09
2024-05-09T02:29:29.439Z,100826.38
2024-05-09T02:30:00.530Z,100822.78
2024-05-09T02:30:39.080Z,100829.84
2024-05-09T02:31:12.452Z,100823.16
2024-05-09T02:31:43.605Z,100825.81
2024-05-09T02:32:14.670Z,100822.31
2024-05-09T02:32:45.957Z,100825.25
2024-05-09T02:33:17.148Z,100822.59
2024-05-09T02:33:48.361Z,100818.28
2024-05-09T02:34:19.446Z,100824.53
2024-05-09T02:34:50.385Z,100821.88
2024-05-09T02:35:21.401Z,100821.59
2024-05-09T02:35:52.345Z,100829.19
2024-05-09T02:36:23.272Z,100828.47
2024-05-09T02:36:54.173Z,100825.72
2024-05-09T02:37:25.050Z,100826.63
2024-05-09T02:37:55.990Z,100821.34
2024-05-09T02:38:27.101Z,100823.03
2024-05-09T02:38:58.049Z,100832.63
2024-05-09T02:39:29.032Z,100823.47
2024-05-09T02:40:01.343Z,100828.88
2024-05-09T02:40:37.314Z,100822.06
2024-05-09T02:41:10.142Z,100821.78
2024-05-09T02:41:41.088Z,100824.16
2024-05-09T02:42:12.088Z,100825.97
2024-05-09T02:42:43.104Z,100821.22
2024-05-09T02:43:14.029Z,100826.63
2024-05-09T02:43:44.956Z,100822.06
2024-05-09T02:44:16.123Z,100823.47
2024-05-09T02:44:47.098Z,100826.13
2024-05-09T02:45:18.031Z,100823.59
2024-05-09T02:45:48.939Z,100825.13
2024-05-09T02:46:19.867Z,100832.09
2024-05-09T02:46:50.788Z,100818.75
2024-05-09T02:47:22.012Z,100820.13
2024-05-09T02:47:53.337Z,100821.78
2024-05-09T02:48:24.562Z,100827.19
2024-05-09T02:48:55.647Z,100824.81
2024-05-09T02:49:26.698Z,100822.06
2024-05-09T02:49:57.769Z,100817.63
2024-05-09T02:50:34.340Z,100818.69
2024-05-09T02:51:09.679Z,100817.84
2024-05-09T02:51:40.609Z,100812.19
2024-05-09T02:52:11.640Z,100820.56
2024-05-09T02:52:42.557Z,100815.97
2024-05-09T02:53:14.329Z,100816.13
2024-05-09T02:53:45.677Z,100824.31
2024-05-09T02:54:16.555Z,100822.63
2024-05-09T02:54:47.421Z,100815.22
2024-05-09T02:55:19.742Z,100817.16
2024-05-09T02:55:50.701Z,100820.50
2024-05-09T02:56:21.767Z,100814.00
2024-05-09T02:56:52.675Z,100819.28
2024-05-09T02:57:23.590Z,100814.13
2024-05-09T02:57:54.484Z,100817.75
2024-05-09T02:58:25.409Z,100817.75
2024-05-09T02:58:56.369Z,100823.97
2024-05-09T02:59:27.744Z,100818.13
2024-05-09T02:59:58.824Z,100827.59
2024-05-09T03:00:37.949Z,100820.06
2024-05-09T03:01:11.921Z,100823.69
2024-05-09T03:01:43.025Z,100813.13
2024-05-09T03:02:14.259Z,100824.38
2024-05-09T03:02:45.375Z,100825.59
2024-05-09T03:03:16.604Z,100820.47
2024-05-09T03:03:47.828Z,100822.13
2024-05-09T03:04:18.962Z,100823.78
2024-05-09T03:04:49.942Z,100823.22
2024-05-09T03:05:21.005Z,100817.94
2024-05-09T03:05:52.009Z,100823.22
2024-05-09T03:06:23.010Z,100821.31
2024-05-09T03:06:53.964Z,100824.75
2024-05-09T03:07:24.943Z,100827.66
2024-05-09T03:07:55.859Z,100826.13
2024-05-09T03:08:27.102Z,100815.84
2024-05-09T03:08:58.963Z,100823.59
2024-05-09T03:09:29.872Z,100823.59
2024-05-09T03:10:00.913Z,100820.53
2024-05-09T03:10:36.399Z,100827.44
2024-05-09T03:11:09.367Z,100832.56
2024-05-09T03:11:40.567Z,100819.75
2024-05-09T03:12:11.816Z,100824.66
2024-05-09T03:12:43.028Z,100828.13
2024-05-09T03:13:15.362Z,100820.94
2024-05-09T03:13:50.269Z,100829.09
2024-05-09T03:14:21.299Z,100824.78
2024-05-09T03:14:52.604Z,100828.38
2024-05-09T03:15:23.511Z,100829.34
2024-05-09T03:15:54.437Z,100829.50
2024-05-09T03:16:25.434Z,100826.25
2024-05-09T03:16:56.374Z,100822.19
2024-05-09T03:17:27.485Z,100828.31
2024-05-09T03:17:58.681Z,100826.50
2024-05-09T03:18:29.954Z,100823.75
2024-05-09T03:19:01.072Z,100833.22
2024-05-09T03:19:34.115Z,100825.44
2024-05-09T03:20:14.528Z,100824.44
2024-05-09T03:20:48.386Z,100828.19
2024-05-09T03:21:19.501Z,100826.50
2024-05-09T03:21:50.394Z,100825.66
2024-05-09T03:22:21.311Z,100832.06
2024-05-09T03:22:55.496Z,100836.00
2024-05-09T03:23:27.648Z,100830.88
2024-05-09T03:23:58.675Z,100823.66
2024-05-09T03:24:29.572Z,100825.81
2024-05-09T03:25:00.472Z,100829.16
2024-05-09T03:25:32.806Z,100826.84
2024-05-09T03:26:09.119Z,100828.56
2024-05-09T03:26:40.581Z,100830.84
2024-05-09T03:27:11.559Z,100830.00
2024-05-09T03:27:42.470Z,100823.88
2024-05-09T03:28:13.378Z,100834.16
2024-05-09T03:28:44.731Z,100826.84
2024-05-09T03:29:15.718Z,100825.63
2024-05-09T03:29:46.839Z,100822.00
2024-05-09T03:30:29.256Z,100816.03
2024-05-09T03:31:07.376Z,100823.81
2024-05-09T03:31:38.338Z,100823.41
2024-05-09T03:32:09.271Z,100820.09
2024-05-09T03:32:42.641Z,100823.31
2024-05-09T03:33:15.120Z,100820.28
2024-05-09T03:33:47.029Z,100814.63
2024-05-09T03:34:18.032Z,100823.59
2024-05-09T03:34:48.958Z,100828.78
2024-05-09T03:35:20.011Z,100819.06
2024-05-09T03:35:50.885Z,100821.81
2024-05-09T03:36:21.802Z,100820.84
2024-05-09T03:36:52.744Z,100814.63
2024-05-09T03:37:23.726Z,100819.91
2024-05-09T03:37:54.639Z,100822.00
2024-05-09T03:38:25.589Z,100820.06
2024-05-09T03:38:56.584Z,100817.69
2024-05-09T03:39:27.492Z,100818.66
2024-05-09T03:39:58.358Z,100824.38
2024-05-09T03:40:31.042Z,100819.34
2024-05-09T03:41:04.073Z,100822.97
2024-05-09T03:41:35.083Z,100816.03
2024-05-09T03:42:06.123Z,100821.03
2024-05-09T03:42:37.028Z,100825.34
2024-05-09T03:43:08.016Z,100820.06
2024-05-09T03:43:38.917Z,100819.94
2024-05-09T03:44:09.929Z,100819.53
2024-05-09T03:44:40.935Z,100816.91
2024-05-09T03:45:12.213Z,100818.31
2024-05-09T03:45:44.051Z,100820.69
2024-05-09T03:46:14.968Z,100820.56
2024-05-09T03:46:45.897Z,100826.69
2024-05-09T03:47:17.062Z,100817.53
2024-05-09T03:47:48.477Z,100818.22
2024-05-09T03:48:19.989Z,100820.03
2024-05-09T03:48:51.272Z,100824.34
2024-05-09T03:49:22.534Z,100823.50
2024-05-09T03:49:53.592Z,100822.41
2024-05-09T03:50:30.216Z,100821.13
2024-05-09T03:51:06.060Z,100815.72
2024-05-09T03:51:36.987Z,100822.16
2024-05-09T03:52:07.888Z,100830.53
2024-05-09T03:52:38.831Z,100823.41
2024-05-09T03:53:11.309Z,100822.44
2024-05-09T03:53:42.438Z,100823.69
2024-05-09T03:54:13.668Z,100825.06
2024-05-09T03:54:44.782Z,100818.09
2024-05-09T03:55:15.726Z,100821.03
2024-05-09T03:55:46.724Z,100826.19
2024-05-09T03:56:19.110Z,100826.94
2024-05-09T03:56:50.098Z,100824.88
2024-05-09T03:57:21.020Z,100823.19
2024-05-09T03:57:52.104Z,100827.22
2024-05-09T03:58:23.034Z,100824.41
2024-05-09T03:58:54.399Z,100818.28
2024-05-09T03:59:25.667Z,100820.94
2024-05-09T03:59:56.691Z,100828.34
2024-05-09T04:00:35.232Z,100821.94
2024-05-09T04:01:09.517Z,100820.72
2024-05-09T04:01:40.597Z,100832.69
2024-05-09T04:02:11.973Z,100828.22
2024-05-09T04:02:46.685Z,100822.66
2024-05-09T04:03:18.342Z,100837.56
2024-05-09T04:03:49.858Z,100825.06
2024-05-09T04:04:20.845Z,100833.69
2024-05-09T04:04:51.835Z,100830.78
2024-05-09T04:05:22.821Z,100831.50
2024-05-09T04:05:53.740Z,100834.13
2024-05-09T04:06:25.679Z,100828.00
2024-05-09T04:06:56.589Z,100831.88
2024-05-09T04:07:27.525Z,100833.81
2024-05-09T04:07:58.651Z,100839.09
2024-05-09T04:08:29.655Z,100836.91
2024-05-09T04:09:00.621Z,100837.34
2024-05-09T04:09:31.499Z,100836.22
2024-05-09T04:10:04.085Z,100833.56
2024-05-09T04:10:36.239Z,100843.47
2024-05-09T04:11:07.195Z,100839.19
2024-05-09T04:11:39.578Z,100836.38
2024-05-09T04:12:10.700Z,100836.94
2024-05-09T04:12:41.793Z,100842.66
2024-05-09T04:13:12.705Z,100836.41
2024-05-09T04:13:43.846Z,100836.53
2024-05-09T04:14:14.830Z,100842.84
2024-05-09T04:14:45.874Z,100843.41
2024-05-09T04:15:16.786Z,100841.31
2024-05-09T04:15:47.745Z,100841.31
2024-05-09T04:16:18.665Z,100835.78
2024-05-09T04:16:49.625Z,100833.94
2024-05-09T04:17:20.591Z,100842.19
2024-05-09T04:17:51.832Z,100845.53
2024-05-09T04:18:22.996Z,100841.78
2024-05-09T04:18:54.185Z,100852.09
2024-05-09T04:19:25.226Z,100842.19
2024-05-09T04:19:56.226Z,100844.69
2024-05-09T04:20:37.072Z,100837.59
2024-05-09T04:21:10.796Z,100847.91
2024-05-09T04:21:41.988Z,100846.66
2024-05-09T04:22:12.962Z,100848.19
2024-05-09T04:22:43.943Z,100847.06
2024-05-09T04:23:15.184Z,100850.25
2024-05-09T04:23:46.236Z,100842.88
2024-05-09T04:24:17.200Z,100850.25
2024-05-09T04:24:48.156Z,100846.13
2024-05-09T04:25:19.055Z,100845.81
2024-05-09T04:25:50.034Z,100844.69
2024-05-09T04:26:21.042Z,100840.81
2024-05-09T04:26:53.324Z,100849.84
2024-05-09T04:27:24.203Z,100838.56
2024-05-09T04:27:55.122Z,100842.31
2024-05-09T04:28:26.000Z,100843.16
2024-05-09T04:28:56.955Z,100833.41
2024-05-09T04:29:28.260Z,100838.28
2024-05-09T04:29:59.338Z,100837.16
2024-05-09T04:30:36.978Z,100837.16
2024-05-09T04:31:10.829Z,100843.72
2024-05-09T04:31:41.768Z,100844.69
2024-05-09T04:32:12.869Z,100844.56
2024-05-09T04:32:44.152Z,100845.91
2024-05-09T04:33:15.763Z,100844.25
2024-05-09T04:33:46.939Z,100845.22
2024-05-09T04:34:18.043Z,100851.06
2024-05-09T04:34:49.004Z,100849.81
2024-05-09T04:35:19.916Z,100849.69
2024-05-09T04:35:50.844Z,100850.53
2024-05-09T04:36:21.756Z,100845.06
2024-05-09T04:36:52.853Z,100850.22
2024-05-09T04:37:23.819Z,100852.88
2024-05-09T04:37:54.780Z,100853.44
2024-05-09T04:38:25.706Z,100856.75
2024-05-09T04:38:56.626Z,100854.69
2024-05-09T04:39:27.697Z,100855.09
2024-05-09T04:39:58.557Z,100848.69
2024-05-09T04:40:33.788Z,100862.63
2024-05-09T04:41:07.202Z,100852.16
2024-05-09T04:41:38.136Z,100851.47
2024-05-09T04:42:10.454Z,100856.91
2024-05-09T04:42:41.407Z,100852.47
2024-05-09T04:43:16.469Z,100859.41
2024-05-09T04:43:47.657Z,100854.41
2024-05-09T04:44:18.762Z,100859.28
2024-05-09T04:44:49.636Z,100860.00
2024-05-09T04:45:20.536Z,100865.28
2024-05-09T04:45:52.514Z,100861.13
2024-05-09T04:46:23.451Z,100862.94
2024-05-09T04:46:54.441Z,100859.88
2024-05-09T04:47:25.506Z,100857.22
2024-05-09T04:47:56.935Z,100860.16
2024-05-09T04:48:28.294Z,100860.16
2024-05-09T04:48:59.543Z,100858.47
2024-05-09T04:49:30.759Z,100864.63
2024-05-09T04:50:01.862Z,100867.00
2024-05-09T04:50:37.031Z,100863.09
2024-05-09T04:51:10.117Z,100861.97
2024-05-09T04:51:41.266Z,100861.13
2024-05-09T04:52:12.299Z,100862.25
2024-05-09T04:52:43.207Z,100867.25
2024-05-09T04:53:15.594Z,100867.53
2024-05-09T04:53:46.615Z,100869.22
2024-05-09T04:54:29.823Z,100865.59
2024-05-09T04:55:07.002Z,100865.47
2024-05-09T04:55:38.775Z,100861.16
2024-05-09T04:56:09.801Z,100865.59
2024-05-09T04:56:40.825Z,100867.13
2024-05-09T04:57:13.161Z,100875.63
2024-05-09T04:57:44.062Z,100864.34
2024-05-09T04:58:15.072Z,100876.63
2024-05-09T04:58:46.017Z,100868.94
2024-05-09T04:59:17.001Z,100874.22
2024-05-09T04:59:48.184Z,100876.88
2024-05-09T05:00:28.127Z,100877.72
2024-05-09T05:01:03.791Z,100875.47
2024-05-09T05:01:34.750Z,100879.97
2024-05-09T05:02:05.857Z,100878.00
2024-05-09T05:02:36.910Z,100875.47
2024-05-09T05:03:12.430Z,100877.88
2024-05-09T05:03:46.063Z,100870.91
2024-05-09T05:04:17.407Z,100869.94
2024-05-09T05:04:48.577Z,100877.59
2024-05-09T05:05:19.762Z,100874.81
2024-05-09T05:05:50.744Z,100872.28
2024-05-09T05:06:21.656Z,100876.88
2024-05-09T05:06:52.631Z,100869.78
2024-05-09T05:07:23.525Z,100879.38
2024-05-09T05:07:54.536Z,100877.72
2024-05-09T05:08:25.484Z,100882.16
2024-05-09T05:08:59.075Z,100879.69
2024-05-09T05:09:30.487Z,100876.75
2024-05-09T05:10:01.422Z,100875.91
2024-05-09T05:10:35.942Z,100873.25
2024-05-09T05:11:07.942Z,100876.63
2024-05-09T05:11:38.994Z,100873.97
2024-05-09T05:12:10.259Z,100879.94
2024-05-09T05:12:42.976Z,100876.31
2024-05-09T05:13:13.974Z,100879.53
2024-05-09T05:13:44.903Z,100882.59
2024-05-09T05:14:16.043Z,100880.63
2024-05-09T05:14:46.999Z,100877.69
2024-05-09T05:15:17.929Z,100882.00
2024-05-09T05:15:50.079Z,100889.00
2024-05-09T05:16:21.088Z,100882.72
2024-05-09T05:16:52.076Z,100883.41
2024-05-09T05:17:23.308Z,100880.34
2024-05-09T05:17:54.538Z,100877.41
2024-05-09T05:18:28.469Z,100885.09
2024-05-09T05:18:59.667Z,100880.75
2024-05-09T05:19:30.921Z,100890.09
2024-05-09T05:20:02.403Z,100883.66
2024-05-09T05:20:34.321Z,100888.00
2024-05-09T05:21:06.200Z,100885.34
2024-05-09T05:21:37.086Z,100886.19
2024-05-09T05:22:08.057Z,100890.34
2024-05-09T05:22:38.984Z,100886.19
2024-05-09T05:23:11.334Z,100895.50
2024-05-09T05:23:42.350Z,100892.03
2024-05-09T05:24:13.382Z,100891.72
2024-05-09T05:24:44.301Z,100891.06
2024-05-09T05:25:15.233Z,100889.09
2024-05-09T05:25:47.119Z,100892.72
2024-05-09T05:26:18.125Z,100890.75
2024-05-09T05:26:49.052Z,100893.13
2024-05-09T05:27:20.009Z,100889.50
2024-05-09T05:27:52.331Z,100884.50
2024-05-09T05:28:23.352Z,100888.41
2024-05-09T05:28:54.386Z,100890.06
2024-05-09T05:29:25.374Z,100892.56
2024-05-09T05:29:56.824Z,100886.97
2024-05-09T05:30:32.594Z,100891.19
2024-05-09T05:31:05.436Z,100892.88
2024-05-09T05:31:36.430Z,100890.34
2024-05-09T05:32:07.485Z,100893.53
2024-05-09T05:32:38.671Z,100890.34
2024-05-09T05:33:12.604Z,100883.91
2024-05-09T05:33:43.745Z,100889.50
2024-05-09T05:34:14.724Z,100889.91
2024-05-09T05:34:45.685Z,100893.25
2024-05-09T05:35:16.649Z,100891.16
2024-05-09T05:35:47.717Z,100889.72
2024-05-09T05:36:18.673Z,100890.28
2024-05-09T05:36:49.586Z,100892.66
2024-05-09T05:37:20.530Z,100897.53
2024-05-09T05:37:51.609Z,100896.38
2024-05-09T05:38:26.097Z,100896.28
2024-05-09T05:38:59.147Z,100898.09
2024-05-09T05:39:30.226Z,100902.00
2024-05-09T05:40:01.120Z,100894.88
2024-05-09T05:40:36.550Z,100897.25
2024-05-09T05:41:09.329Z,100895.97
2024-05-09T05:41:40.465Z,100893.72
2024-05-09T05:42:11.356Z,100912.16
2024-05-09T05:42:42.469Z,100894.88
2024-05-09T05:43:17.791Z,100900.97
2024-05-09T05:43:48.744Z,100908.38
2024-05-09T05:44:19.745Z,100904.44
2024-05-09T05:44:50.673Z,100896.91
2024-05-09T05:45:21.830Z,100898.41
2024-05-09T05:45:52.781Z,100892.88
2024-05-09T05:46:23.813Z,100905.13
2024-05-09T05:46:54.832Z,100906.81
2024-05-09T05:47:25.901Z,100898.41
2024-05-09T05:47:57.099Z,100900.63
2024-05-09T05:48:28.360Z,100902.31
2024-05-09T05:48:59.463Z,100903.69
2024-05-09T05:49:30.509Z,100903.53
2024-05-09T05:50:01.522Z,100901.03
2024-05-09T05:50:36.356Z,100899.06
2024-05-09T05:51:09.188Z,100904.06
2024-05-09T05:51:40.305Z,100906.44
2024-05-09T05:52:11.261Z,100905.00
2024-05-09T05:52:42.522Z,100901.22
2024-05-09T05:53:13.777Z,100902.75
2024-05-09T05:53:44.912Z,100899.38
2024-05-09T05:54:15.856Z,100907.50
2024-05-09T05:54:46.887Z,100903.88
2024-05-09T05:55:17.793Z,100910.31
2024-05-09T05:55:48.834Z,100901.22
2024-05-09T05:56:19.883Z,100904.41
2024-05-09T05:56:50.835Z,100906.91
2024-05-09T05:57:21.755Z,100904.13
2024-05-09T05:57:52.733Z,100902.00
2024-05-09T05:58:25.003Z,100911.78
2024-05-09T05:58:55.981Z,100906.78
2024-05-09T05:59:26.968Z,100910.81
2024-05-09T05:59:57.833Z,100914.00
2024-05-09T06:00:34.999Z,100909.66
2024-05-09T06:01:09.426Z,100919.16
2024-05-09T06:01:40.372Z,100904.34
2024-05-09T06:02:11.429Z,100907.97
2024-05-09T06:02:42.489Z,100908.53
2024-05-09T06:03:14.274Z,100909.97